createdAt,value
2017-09-25T00:02:02.679Z,35.67
2017-09-25T00:04:31.535Z,37.60
2017-09-25T00:07:00.422Z,35.70
2017-09-25T00:09:29.291Z,33.10
2017-09-25T00:11:58.169Z,33.77
2017-09-25T00:14:27.041Z,34.33
2017-09-25T00:16:55.945Z,35.10
2017-09-25T00:19:24.808Z,37.20
2017-09-25T00:21:53.669Z,34.97
2017-09-25T00:24:22.549Z,36.80
2017-09-25T00:26:51.412Z,36.70
2017-09-25T00:29:20.319Z,38.73
2017-09-25T00:31:49.185Z,35.63
2017-09-25T00:34:18.072Z,38.67
2017-09-25T00:36:46.941Z,37.47
2017-09-25T00:39:15.819Z,37.50
2017-09-25T00:41:44.676Z,39.10
2017-09-25T00:44:13.556Z,36.60
2017-09-25T00:46:42.424Z,37.97
2017-09-25T00:49:11.300Z,39.43
2017-09-25T00:51:40.168Z,38.90
2017-09-25T00:54:09.052Z,41.70
2017-09-25T00:56:37.908Z,41.60
2017-09-25T00:59:06.800Z,41.60
2017-09-25T01:01:41.511Z,40.73
2017-09-25T01:04:16.301Z,42.30
2017-09-25T01:06:45.158Z,42.47
2017-09-25T01:09:14.040Z,41.80
2017-09-25T01:11:42.900Z,40.80
2017-09-25T01:14:11.785Z,39.20
2017-09-25T01:16:40.783Z,44.07
2017-09-25T01:19:09.660Z,43.30
2017-09-25T01:21:38.529Z,43.30
2017-09-25T01:24:07.406Z,42.80
2017-09-25T01:26:36.268Z,43.33
2017-09-25T01:29:05.168Z,38.10
2017-09-25T01:31:34.033Z,40.60
2017-09-25T01:34:02.905Z,41.63
2017-09-25T01:36:31.789Z,39.53
2017-09-25T01:39:00.709Z,39.87
2017-09-25T01:41:29.592Z,41.07
2017-09-25T01:43:58.452Z,38.57
2017-09-25T01:46:27.324Z,39.33
2017-09-25T01:48:56.184Z,38.47
2017-09-25T01:51:25.069Z,40.77
2017-09-25T01:53:53.929Z,36.90
2017-09-25T01:56:22.813Z,38.23
2017-09-25T01:58:51.676Z,39.10
2017-09-25T02:01:20.552Z,37.93
2017-09-25T02:03:49.417Z,37.20
2017-09-25T02:06:18.301Z,36.50
2017-09-25T02:08:47.160Z,38.57
2017-09-25T02:11:16.147Z,35.63
2017-09-25T02:13:45.013Z,36.83
2017-09-25T02:16:13.923Z,34.87
2017-09-25T02:18:42.816Z,37.20
2017-09-25T02:21:11.682Z,35.33
2017-09-25T02:23:40.555Z,36.07
2017-09-25T02:26:09.424Z,37.63
2017-09-25T02:28:38.308Z,36.80
2017-09-25T02:31:07.176Z,36.37
2017-09-25T02:33:36.059Z,36.00
2017-09-25T02:36:04.929Z,36.00
2017-09-25T02:38:33.813Z,34.10
2017-09-25T02:41:02.680Z,35.80
2017-09-25T02:43:31.561Z,33.03
2017-09-25T02:46:00.428Z,34.40
2017-09-25T02:48:29.304Z,35.70
2017-09-25T02:50:58.166Z,37.33
2017-09-25T02:53:27.054Z,33.17
2017-09-25T02:55:55.916Z,35.23
2017-09-25T02:58:24.824Z,36.10
2017-09-25T03:00:53.685Z,34.00
2017-09-25T03:03:22.561Z,33.87
2017-09-25T03:05:51.423Z,34.80
2017-09-25T03:08:20.329Z,35.37
2017-09-25T03:10:49.188Z,36.37
2017-09-25T03:13:18.065Z,33.70
2017-09-25T03:15:46.924Z,35.30
2017-09-25T03:18:15.817Z,33.10
2017-09-25T03:20:44.681Z,33.73
2017-09-25T03:23:13.577Z,33.70
2017-09-25T03:25:42.444Z,34.00
2017-09-25T03:28:11.323Z,34.73
2017-09-25T03:30:40.214Z,32.83
2017-09-25T03:33:09.193Z,33.17
2017-09-25T03:35:38.085Z,34.60
2017-09-25T03:38:06.957Z,34.67
2017-09-25T03:40:35.940Z,34.43
2017-09-25T03:43:04.823Z,34.10
2017-09-25T03:45:33.702Z,33.00
2017-09-25T03:48:02.613Z,33.57
2017-09-25T03:50:31.500Z,32.30
2017-09-25T03:53:00.368Z,32.87
2017-09-25T03:55:29.257Z,32.17
2017-09-25T03:57:58.131Z,34.67
2017-09-25T04:00:27.020Z,33.53
2017-09-25T04:02:55.896Z,34.87
2017-09-25T04:05:24.818Z,33.03
2017-09-25T04:07:53.692Z,31.90
2017-09-25T04:10:22.574Z,36.30
2017-09-25T04:12:51.452Z,32.30
2017-09-25T04:15:20.332Z,34.83
2017-09-25T04:17:49.195Z,33.40
2017-09-25T04:20:18.077Z,32.00
2017-09-25T04:22:46.936Z,32.67
2017-09-25T04:25:15.882Z,32.47
2017-09-25T04:27:44.744Z,32.50
2017-09-25T04:30:13.665Z,36.50
2017-09-25T04:32:42.556Z,32.73
2017-09-25T04:35:11.438Z,36.03
2017-09-25T04:37:40.331Z,32.10
2017-09-25T04:40:09.192Z,33.03
2017-09-25T04:42:38.073Z,34.20
2017-09-25T04:45:06.934Z,33.03
2017-09-25T04:47:35.816Z,32.20
2017-09-25T04:50:04.685Z,32.60
2017-09-25T04:52:33.564Z,34.20
2017-09-25T04:55:02.435Z,34.60
2017-09-25T04:57:31.315Z,36.00
2017-09-25T05:00:00.184Z,33.40
2017-09-25T05:02:29.096Z,33.93
2017-09-25T05:04:57.964Z,34.90
2017-09-25T05:07:26.844Z,35.53
2017-09-25T05:09:55.709Z,33.30
2017-09-25T05:12:24.600Z,33.90
2017-09-25T05:14:53.473Z,35.70
2017-09-25T05:17:22.404Z,31.20
2017-09-25T05:19:51.259Z,32.63
2017-09-25T05:22:20.201Z,32.70
2017-09-25T05:24:49.063Z,35.33
2017-09-25T05:27:17.962Z,32.37
2017-09-25T05:29:46.833Z,31.67
2017-09-25T05:32:15.726Z,31.13
2017-09-25T05:34:44.592Z,29.40
2017-09-25T05:37:13.476Z,31.27
2017-09-25T05:39:42.346Z,33.37
2017-09-25T05:42:11.431Z,30.10
2017-09-25T05:44:40.287Z,28.80
2017-09-25T05:47:09.173Z,32.60
2017-09-25T05:49:38.045Z,34.53
2017-09-25T05:52:07.476Z,33.27
2017-09-25T05:54:36.341Z,35.30
2017-09-25T05:57:05.277Z,31.37
2017-09-25T05:59:34.136Z,31.53
2017-09-25T06:02:03.040Z,32.53
2017-09-25T06:04:31.908Z,33.40
2017-09-25T06:07:00.769Z,34.90
2017-09-25T06:09:29.644Z,30.70
2017-09-25T06:11:58.509Z,32.40
2017-09-25T06:14:27.388Z,37.00
2017-09-25T06:16:56.256Z,32.83
2017-09-25T06:19:25.143Z,36.23
2017-09-25T06:21:54.013Z,35.07
2017-09-25T06:24:22.888Z,31.33
2017-09-25T06:26:51.748Z,32.40
2017-09-25T06:29:20.627Z,31.83
2017-09-25T06:31:49.487Z,37.43
2017-09-25T06:34:18.361Z,32.70
2017-09-25T06:36:47.234Z,31.70
2017-09-25T06:39:16.116Z,35.17
2017-09-25T06:41:44.980Z,31.60
2017-09-25T06:44:13.869Z,32.60
2017-09-25T06:46:42.832Z,31.93
2017-09-25T06:49:11.729Z,30.30
2017-09-25T06:51:40.660Z,33.47
2017-09-25T06:54:09.536Z,35.07
2017-09-25T06:56:38.400Z,33.57
2017-09-25T06:59:07.281Z,34.63
2017-09-25T07:01:36.144Z,33.30
2017-09-25T07:04:05.134Z,37.80
2017-09-25T07:06:34.005Z,34.30
2017-09-25T07:09:02.897Z,33.43
2017-09-25T07:11:31.765Z,31.70
2017-09-25T07:14:00.664Z,35.80
2017-09-25T07:16:29.528Z,38.70
2017-09-25T07:18:58.394Z,38.17
2017-09-25T07:21:27.276Z,35.07
2017-09-25T07:23:56.158Z,39.77
2017-09-25T07:26:25.040Z,42.40
2017-09-25T07:28:53.908Z,38.43
2017-09-25T07:31:22.796Z,40.70
2017-09-25T07:33:51.666Z,37.30
2017-09-25T07:36:20.604Z,35.53
2017-09-25T07:38:49.472Z,38.10
2017-09-25T07:41:18.361Z,37.20
2017-09-25T07:43:47.224Z,37.90
2017-09-25T07:46:16.097Z,33.67
2017-09-25T07:48:44.964Z,37.47
2017-09-25T07:51:13.841Z,33.90
2017-09-25T07:53:42.716Z,35.83
2017-09-25T07:56:11.593Z,36.50
2017-09-25T07:58:40.469Z,35.10
2017-09-25T08:01:09.340Z,33.33
2017-09-25T08:03:38.209Z,33.67
2017-09-25T08:06:07.083Z,35.70
2017-09-25T08:08:35.949Z,32.43
2017-09-25T08:11:04.829Z,34.13
2017-09-25T08:13:33.700Z,30.60
2017-09-25T08:16:02.580Z,34.37
2017-09-25T08:18:31.436Z,35.73
2017-09-25T08:21:00.312Z,34.83
2017-09-25T08:23:29.176Z,34.80
2017-09-25T08:25:58.053Z,39.67
2017-09-25T08:28:26.933Z,39.97
2017-09-25T08:30:55.797Z,41.23
2017-09-25T08:33:24.677Z,38.70
2017-09-25T08:35:53.571Z,37.80
2017-09-25T08:38:22.465Z,41.70
2017-09-25T08:40:51.328Z,39.53
2017-09-25T08:43:20.229Z,39.10
2017-09-25T08:45:49.088Z,37.60
2017-09-25T08:48:17.972Z,40.50
2017-09-25T08:50:46.840Z,40.87
2017-09-25T08:53:15.714Z,38.53
2017-09-25T08:55:44.579Z,39.53
2017-09-25T08:58:13.462Z,36.67
2017-09-25T09:00:42.324Z,38.67
2017-09-25T09:03:11.205Z,37.40
2017-09-25T09:05:40.065Z,35.73
2017-09-25T09:08:08.945Z,40.43
2017-09-25T09:10:37.808Z,32.90
2017-09-25T09:13:06.691Z,34.30
2017-09-25T09:15:35.564Z,36.77
2017-09-25T09:18:04.441Z,33.50
2017-09-25T09:20:33.309Z,34.60
2017-09-25T09:23:02.184Z,34.50
2017-09-25T09:25:31.048Z,32.90
2017-09-25T09:27:59.932Z,35.03
2017-09-25T09:30:28.796Z,37.27
2017-09-25T09:32:57.672Z,33.93
2017-09-25T09:35:26.537Z,32.10
2017-09-25T09:37:55.422Z,37.20
2017-09-25T09:40:24.295Z,36.60
2017-09-25T09:42:53.177Z,38.93
2017-09-25T09:45:22.035Z,37.23
2017-09-25T09:47:50.933Z,35.93
2017-09-25T09:50:19.792Z,34.80
2017-09-25T09:52:48.660Z,35.40
2017-09-25T09:55:17.536Z,35.70
2017-09-25T09:57:46.414Z,37.70
2017-09-25T10:00:15.297Z,35.83
2017-09-25T10:02:44.167Z,38.03
2017-09-25T10:05:13.041Z,35.30
2017-09-25T10:07:41.908Z,37.53
2017-09-25T10:10:10.805Z,35.73
2017-09-25T10:12:39.664Z,35.83
2017-09-25T10:15:08.545Z,35.90
2017-09-25T10:17:37.420Z,37.77
2017-09-25T10:20:06.300Z,36.63
2017-09-25T10:22:35.172Z,35.57
2017-09-25T10:25:04.087Z,35.60
2017-09-25T10:27:32.952Z,36.00
2017-09-25T10:30:01.828Z,34.23
2017-09-25T10:32:30.697Z,32.13
2017-09-25T10:34:59.573Z,31.03
2017-09-25T10:37:28.441Z,31.07
2017-09-25T10:39:57.317Z,30.63
2017-09-25T10:42:26.180Z,28.53
2017-09-25T10:44:55.056Z,26.83
2017-09-25T10:47:23.924Z,32.60
2017-09-25T10:49:52.805Z,32.80
2017-09-25T10:52:21.664Z,29.20
2017-09-25T10:54:50.545Z,27.20
2017-09-25T10:57:19.411Z,28.17
2017-09-25T10:59:48.285Z,31.57
2017-09-25T11:02:17.209Z,32.97
2017-09-25T11:04:46.117Z,33.67
2017-09-25T11:07:14.985Z,35.60
2017-09-25T11:09:43.859Z,36.43
2017-09-25T11:12:12.735Z,36.00
2017-09-25T11:14:41.620Z,37.37
2017-09-25T11:17:10.495Z,36.93
2017-09-25T11:19:39.356Z,38.30
2017-09-25T11:22:08.228Z,34.67
2017-09-25T11:24:37.083Z,34.87
2017-09-25T11:27:05.966Z,33.90
2017-09-25T11:29:34.827Z,32.00
2017-09-25T11:32:03.709Z,33.13
2017-09-25T11:34:32.576Z,32.03
2017-09-25T11:37:01.452Z,29.63
2017-09-25T11:39:30.312Z,29.10
2017-09-25T11:41:59.192Z,26.67
2017-09-25T11:44:28.052Z,26.13
2017-09-25T11:46:56.928Z,29.87
2017-09-25T11:49:25.793Z,26.37
2017-09-25T11:51:54.676Z,26.27
2017-09-25T11:54:23.548Z,24.37
2017-09-25T11:56:52.435Z,23.23
2017-09-25T11:59:21.296Z,21.23
2017-09-25T12:01:50.177Z,22.90
2017-09-25T12:04:19.042Z,21.27
2017-09-25T12:06:47.920Z,23.87
2017-09-25T12:09:16.810Z,25.93
2017-09-25T12:11:45.708Z,26.67
2017-09-25T12:14:14.584Z,23.93
2017-09-25T12:16:43.465Z,22.67
2017-09-25T12:19:12.345Z,22.97
2017-09-25T12:21:41.232Z,21.20
2017-09-25T12:24:10.117Z,24.30
2017-09-25T12:26:38.981Z,24.43
2017-09-25T12:29:07.866Z,24.57
2017-09-25T12:31:36.725Z,23.87
2017-09-25T12:34:05.600Z,22.13
2017-09-25T12:36:34.466Z,20.63
2017-09-25T12:39:03.374Z,21.90
2017-09-25T12:41:32.237Z,20.50
2017-09-25T12:44:01.125Z,20.50
2017-09-25T12:46:29.984Z,16.50
2017-09-25T12:48:58.880Z,17.67
2017-09-25T12:51:27.748Z,18.23
2017-09-25T12:53:56.609Z,18.03
2017-09-25T12:56:25.493Z,17.93
2017-09-25T12:58:54.367Z,16.73
2017-09-25T13:01:23.257Z,16.07
2017-09-25T13:03:52.128Z,18.87
2017-09-25T13:06:21.097Z,18.37
2017-09-25T13:08:49.956Z,18.53
2017-09-25T13:11:18.838Z,18.27
2017-09-25T13:13:47.699Z,18.20
2017-09-25T13:16:16.580Z,18.63
2017-09-25T13:18:45.444Z,18.60
2017-09-25T13:21:14.344Z,17.73
2017-09-25T13:23:43.208Z,19.13
2017-09-25T13:26:12.094Z,18.43
2017-09-25T13:28:40.956Z,17.20
2017-09-25T13:31:09.862Z,19.00
2017-09-25T13:33:38.733Z,17.47
2017-09-25T13:36:07.610Z,18.70
2017-09-25T13:38:36.492Z,17.70
2017-09-25T13:41:05.372Z,19.57
2017-09-25T13:43:34.265Z,19.97
2017-09-25T13:46:03.123Z,21.40
2017-09-25T13:48:32.030Z,18.93
2017-09-25T13:51:00.899Z,18.50
2017-09-25T13:53:29.777Z,18.80
2017-09-25T13:55:58.654Z,19.60
2017-09-25T13:58:27.554Z,19.13
2017-09-25T14:03:30.661Z,19.10
2017-09-25T14:05:59.524Z,21.50
2017-09-25T14:08:28.413Z,21.10
2017-09-25T14:10:57.268Z,17.10
2017-09-25T14:13:26.150Z,18.93
2017-09-25T14:15:55.022Z,19.73
2017-09-25T14:18:23.901Z,20.37
2017-09-25T14:20:52.765Z,17.10
2017-09-25T14:23:21.696Z,17.53
2017-09-25T14:25:50.568Z,19.00
2017-09-25T14:28:19.441Z,16.73
2017-09-25T14:30:48.328Z,17.63
2017-09-25T14:33:17.205Z,17.10
2017-09-25T14:35:46.092Z,17.60
2017-09-25T14:38:14.965Z,16.43
2017-09-25T14:40:43.845Z,16.53
2017-09-25T14:43:12.704Z,15.87
2017-09-25T14:45:41.584Z,14.17
2017-09-25T14:48:10.449Z,13.50
2017-09-25T14:50:39.328Z,16.60
2017-09-25T14:53:08.192Z,14.73
2017-09-25T14:55:37.081Z,13.20
2017-09-25T14:58:05.950Z,13.17
2017-09-25T15:00:34.832Z,14.40
2017-09-25T15:03:03.702Z,14.77
2017-09-25T15:05:32.605Z,12.90
2017-09-25T15:08:01.464Z,11.83
2017-09-25T15:10:30.328Z,12.90
2017-09-25T15:12:59.213Z,12.40
2017-09-25T15:15:28.080Z,14.03
2017-09-25T15:17:56.961Z,13.90
2017-09-25T15:20:25.825Z,12.57
2017-09-25T15:22:54.704Z,13.10
2017-09-25T15:25:23.565Z,13.60
2017-09-25T15:27:52.442Z,13.07
2017-09-25T15:30:21.315Z,13.07
2017-09-25T15:32:50.200Z,13.43
2017-09-25T15:35:19.065Z,13.27
2017-09-25T15:37:47.945Z,14.47
2017-09-25T15:40:16.805Z,12.37
2017-09-25T15:42:45.683Z,13.47
2017-09-25T15:45:14.558Z,13.57
2017-09-25T15:47:43.471Z,13.07
2017-09-25T15:50:12.344Z,12.27
2017-09-25T15:52:41.216Z,13.30
2017-09-25T15:55:10.114Z,13.70
2017-09-25T15:57:38.979Z,12.33
2017-09-25T16:00:07.861Z,13.40
2017-09-25T16:02:36.725Z,12.80
2017-09-25T16:05:05.607Z,12.70
2017-09-25T16:07:34.485Z,13.33
2017-09-25T16:10:03.370Z,13.87
2017-09-25T16:12:32.232Z,12.07
2017-09-25T16:15:01.109Z,13.97
2017-09-25T16:17:29.981Z,14.40
2017-09-25T16:19:58.871Z,13.70
2017-09-25T16:22:27.736Z,15.03
2017-09-25T16:24:56.617Z,14.27
2017-09-25T16:27:25.484Z,13.33
2017-09-25T16:29:54.373Z,16.10
2017-09-25T16:32:23.240Z,16.53
2017-09-25T16:34:52.136Z,14.80
2017-09-25T16:37:21.045Z,16.83
2017-09-25T16:39:49.917Z,15.57
2017-09-25T16:42:18.808Z,15.53
2017-09-25T16:44:47.668Z,17.07
2017-09-25T16:47:16.550Z,17.00
2017-09-25T16:49:45.417Z,16.60
2017-09-25T16:52:14.301Z,17.33
2017-09-25T16:54:43.162Z,16.00
2017-09-25T16:57:12.040Z,16.50
2017-09-25T16:59:40.908Z,15.80
2017-09-25T17:02:09.794Z,16.03
2017-09-25T17:04:38.657Z,15.07
2017-09-25T17:07:07.537Z,16.87
2017-09-25T17:09:36.407Z,17.27
2017-09-25T17:12:05.294Z,18.20
2017-09-25T17:14:34.165Z,15.97
2017-09-25T17:17:03.056Z,15.63
2017-09-25T17:19:31.924Z,18.97
2017-09-25T17:22:00.816Z,18.00
2017-09-25T17:24:29.685Z,17.60
2017-09-25T17:26:58.581Z,18.93
2017-09-25T17:29:27.457Z,18.57
2017-09-25T17:31:56.364Z,18.43
2017-09-25T17:34:25.230Z,20.77
2017-09-25T17:36:54.106Z,19.60
2017-09-25T17:39:22.991Z,18.87
2017-09-25T17:41:51.852Z,21.00
2017-09-25T17:44:20.779Z,20.10
2017-09-25T17:46:49.640Z,19.50
2017-09-25T17:49:18.527Z,20.50
2017-09-25T17:51:47.388Z,21.60
2017-09-25T17:54:16.268Z,21.73
2017-09-25T17:56:45.130Z,20.37
2017-09-25T17:59:14.008Z,21.70
2017-09-25T18:01:42.872Z,21.23
2017-09-25T18:04:11.757Z,22.33
2017-09-25T18:06:40.767Z,23.00
2017-09-25T18:09:09.673Z,21.33
2017-09-25T18:11:38.544Z,23.17
2017-09-25T18:14:07.408Z,22.20
2017-09-25T18:16:36.289Z,22.60
2017-09-25T18:19:05.165Z,22.07
2017-09-25T18:21:34.044Z,22.50
2017-09-25T18:24:02.900Z,20.03
2017-09-25T18:26:31.784Z,23.30
2017-09-25T18:29:00.705Z,23.90
2017-09-25T18:31:29.580Z,22.77
2017-09-25T18:33:58.445Z,23.60
2017-09-25T18:36:27.328Z,22.50
2017-09-25T18:38:56.218Z,22.23
2017-09-25T18:41:25.111Z,23.70
2017-09-25T18:43:53.978Z,24.40
2017-09-25T18:46:22.844Z,23.40
2017-09-25T18:48:51.734Z,23.53
2017-09-25T18:51:20.620Z,22.63
2017-09-25T18:53:49.501Z,23.40
2017-09-25T18:56:19.161Z,23.40
2017-09-25T18:58:48.044Z,22.10
2017-09-25T19:01:16.909Z,22.77
2017-09-25T19:03:45.811Z,23.40
2017-09-25T19:06:14.668Z,22.00
2017-09-25T19:08:43.559Z,22.77
2017-09-25T19:11:12.431Z,21.90
2017-09-25T19:13:41.311Z,21.93
2017-09-25T19:16:10.176Z,23.00
2017-09-25T19:18:39.063Z,22.40
2017-09-25T19:21:07.932Z,21.93
2017-09-25T19:23:36.836Z,22.50
2017-09-25T19:26:05.696Z,22.93
2017-09-25T19:28:34.564Z,21.30
2017-09-25T19:31:03.443Z,21.00
2017-09-25T19:33:32.311Z,21.80
2017-09-25T19:36:01.193Z,21.43
2017-09-25T19:38:30.059Z,23.20
2017-09-25T19:40:58.940Z,21.60
2017-09-25T19:43:27.806Z,21.50
2017-09-25T19:45:56.697Z,20.40
2017-09-25T19:48:26.456Z,22.30
2017-09-25T19:50:55.881Z,22.57
2017-09-25T19:53:24.745Z,23.70
2017-09-25T19:55:53.622Z,22.10
2017-09-25T19:58:26.436Z,22.97
2017-09-25T20:00:55.316Z,21.47
2017-09-25T20:03:24.187Z,22.80
2017-09-25T20:05:53.104Z,22.90
2017-09-25T20:08:21.977Z,23.90
2017-09-25T20:10:50.849Z,21.33
2017-09-25T20:13:19.732Z,21.90
2017-09-25T20:15:55.233Z,21.33
2017-09-25T20:18:24.116Z,23.53
2017-09-25T20:20:52.979Z,23.73
2017-09-25T20:23:21.864Z,23.10
2017-09-25T20:25:50.732Z,22.27
2017-09-25T20:28:19.611Z,21.23
2017-09-25T20:30:48.485Z,24.40
2017-09-25T20:33:17.376Z,23.90
2017-09-25T20:35:46.245Z,23.23
2017-09-25T20:38:15.133Z,24.20
2017-09-25T20:40:44.904Z,23.60
2017-09-25T20:43:15.588Z,22.90
2017-09-25T20:45:44.447Z,22.10
2017-09-25T20:48:13.337Z,25.30
2017-09-25T20:50:42.205Z,23.00
2017-09-25T20:53:11.068Z,23.67
2017-09-25T20:55:39.940Z,24.03
2017-09-25T20:58:08.806Z,21.27
2017-09-25T21:00:37.684Z,23.10
2017-09-25T21:03:06.562Z,23.00
2017-09-25T21:05:35.460Z,23.47
2017-09-25T21:08:04.324Z,24.13
2017-09-25T21:10:33.209Z,23.20
2017-09-25T21:13:02.069Z,22.80
2017-09-25T21:15:30.949Z,23.37
2017-09-25T21:17:59.827Z,22.60
2017-09-25T21:20:28.704Z,21.30
2017-09-25T21:22:57.573Z,23.43
2017-09-25T21:25:26.449Z,23.90
2017-09-25T21:27:55.316Z,22.80
2017-09-25T21:30:24.212Z,23.73
2017-09-25T21:32:53.081Z,24.20
2017-09-25T21:35:21.947Z,25.20
2017-09-25T21:37:50.820Z,22.63
2017-09-25T21:40:19.684Z,24.53
2017-09-25T21:42:48.568Z,24.10
2017-09-25T21:45:17.428Z,22.33
2017-09-25T21:47:46.305Z,22.37
2017-09-25T21:50:15.173Z,24.67
2017-09-25T21:52:44.057Z,24.67
2017-09-25T21:55:12.920Z,23.50
2017-09-25T21:57:41.980Z,22.33
2017-09-25T22:00:10.902Z,24.30
2017-09-25T22:02:39.804Z,24.73
2017-09-25T22:05:08.674Z,23.00
2017-09-25T22:07:37.528Z,25.43
2017-09-25T22:10:06.413Z,22.83
2017-09-25T22:12:35.276Z,23.83
2017-09-25T22:15:04.160Z,23.93
2017-09-25T22:17:33.028Z,22.30
2017-09-25T22:20:01.908Z,23.80
2017-09-25T22:22:30.780Z,22.80
2017-09-25T22:24:59.656Z,25.67
2017-09-25T22:27:28.515Z,25.00
2017-09-25T22:29:57.396Z,25.00
2017-09-25T22:32:26.261Z,23.67
2017-09-25T22:34:55.172Z,24.00
2017-09-25T22:37:24.036Z,23.50
2017-09-25T22:40:00.601Z,24.90
2017-09-25T22:42:41.165Z,23.87
2017-09-25T22:45:10.059Z,25.60
2017-09-25T22:47:38.924Z,23.73
2017-09-25T22:50:07.788Z,26.20
2017-09-25T22:52:36.671Z,25.20
2017-09-25T22:55:05.532Z,23.70
2017-09-25T22:57:34.420Z,26.00
2017-09-25T23:00:03.295Z,25.03
2017-09-25T23:02:32.176Z,25.70
2017-09-25T23:05:01.948Z,28.93
2017-09-25T23:07:30.831Z,26.60
2017-09-25T23:10:01.489Z,27.93
2017-09-25T23:12:30.368Z,26.40
2017-09-25T23:14:59.240Z,29.77
2017-09-25T23:17:28.115Z,28.00
2017-09-25T23:19:56.980Z,27.27
2017-09-25T23:22:25.865Z,28.97
2017-09-25T23:24:54.728Z,31.23
2017-09-25T23:27:23.628Z,26.47
2017-09-25T23:29:56.984Z,31.40
2017-09-25T23:32:25.896Z,25.77
2017-09-25T23:34:54.751Z,28.80
2017-09-25T23:37:23.613Z,29.03
2017-09-25T23:39:52.487Z,30.60
2017-09-25T23:42:21.367Z,29.57
2017-09-25T23:44:50.242Z,31.20
2017-09-25T23:47:19.099Z,29.50
2017-09-25T23:49:47.971Z,30.80
2017-09-25T23:52:16.864Z,29.93
2017-09-25T23:54:45.740Z,32.53
2017-09-25T23:57:14.604Z,30.03
2017-09-25T23:59:43.488Z,29.50
